Latest Coastal Weather Observations for Adele Island

IDW60701

Issued at 4:40 pm WST Saturday 31 January 2015 (issued every 10 minutes, with the page automatically refreshed every 10 minutes)

About coastal observations | Map of coastal stations | Coastal observations for WA | Marine services | Other Formats
Station Details ID: 200735 Name: ADELE ISLAND Lat: -15.51 Lon: 123.16 Height: 4.6 m
Data from the previous 72 hours. | See also: Recent months for locations in Western Australia
Date/Time
WST
Temp

°C
Wind Pressure Rain
since 9am
mm
Weather Cloud Vis
km
Sea
Height
m
Swell
Dir
 
Speed
knots
Gust
knots
hPa Trend Height
m
Period
s
Dir
31/04:30pm 29.4 WSW 8 11 1006.8 - - - - - - - - -
31/04:00pm 29.6 W 7 9 1006.9 - - - - - - - - -
31/03:30pm 29.6 W 8 11 1007.3 - - - - - - - - -
31/03:00pm 29.7 WSW 8 11 1007.5 - - - - - - - - -
31/02:30pm 29.4 W 8 10 1007.7 - - - - - - - - -
31/02:00pm 29.6 WSW 9 12 1008.5 - - - - - - - - -
31/01:30pm 30.0 WSW 9 12 1008.8 - - - - - - - - -
31/01:00pm 29.6 W 9 11 1008.9 - - - - - - - - -
31/12:30pm 30.0 W 9 11 1009.1 - - - - - - - - -
31/12:00pm 29.3 W 9 13 1009.4 - - - - - - - - -
31/11:30am 29.3 W 8 10 1010.0 - - - - - - - - -
31/11:00am 29.4 WSW 8 10 1010.3 - - - - - - - - -
31/10:30am 29.7 W 8 10 1010.5 - - - - - - - - -
31/10:00am 28.9 WSW 8 10 1010.6 - - - - - - - - -
31/09:30am 29.1 SW 9 11 1010.5 - - - - - - - - -
31/09:00am 29.4 SW 9 11 1010.2 - - - - - - - - -
31/08:30am 28.9 SW 8 11 1010.0 - - - - - - - - -
31/08:00am 29.1 WSW 8 9 1010.0 - - - - - - - - -
31/07:30am 28.6 WSW 8 9 1009.8 - - - - - - - - -
31/07:00am 28.2 SW 7 9 1009.7 - - - - - - - - -
31/06:30am 27.8 W 6 8 1009.6 - - - - - - - - -
31/06:00am 27.6 NW 6 7 1009.1 - - - - - - - - -
31/05:30am 27.5 NW 6 7 1008.8 - - - - - - - - -
31/05:00am 27.5 NNW 6 6 1008.7 - - - - - - - - -
31/04:30am 27.5 NNW 6 6 1008.6 - - - - - - - - -
31/04:00am 27.5 N 6 6 1008.6 - - - - - - - - -
31/03:30am 27.5 NNW 6 6 1008.7 - - - - - - - - -
31/03:00am 27.5 N 5 6 1008.7 - - - - - - - - -
31/02:30am 27.5 N 5 6 1008.7 - - - - - - - - -
31/02:00am 27.5 N 5 6 1008.7 - - - - - - - - -
31/01:30am 27.5 N 5 6 1008.5 - - - - - - - - -
31/01:00am 27.5 N 5 6 1008.7 - - - - - - - - -
31/12:30am 27.5 N 5 6 1008.6 - - - - - - - - -
31/12:00am 27.5 N 7 9 1008.7 - - - - - - - - -
 
Date/Time
WST
Temp

°C
Wind Pressure Rain
since 9am
mm
Weather Cloud Vis
km
Sea
Height
m
Swell
Dir
 
Speed
knots
Gust
knots
hPa Trend Height
m
Period
s
Dir
30/11:30pm 27.7 N 7 7 1008.9 - - - - - - - - -
30/11:00pm 27.7 N 5 7 1009.3 - - - - - - - - -
30/10:30pm 27.7 N 6 7 1009.4 - - - - - - - - -
30/10:00pm 27.8 N 5 6 1009.5 - - - - - - - - -
30/09:30pm 27.7 N 5 6 1009.3 - - - - - - - - -
30/09:00pm 27.7 N 5 5 1009.1 - - - - - - - - -
30/08:30pm 27.7 NNW 5 6 1008.7 - - - - - - - - -
30/08:00pm 27.6 NNW 5 6 1008.3 - - - - - - - - -
30/07:30pm 27.4 NW 6 7 1007.6 - - - - - - - - -
30/07:00pm 27.4 NNW 4 6 1007.4 - - - - - - - - -
30/06:30pm 27.4 NNW 5 6 1007.0 - - - - - - - - -
30/06:00pm 27.2 N 4 4 1006.8 - - - - - - - - -
30/05:30pm 27.2 WNW 5 6 1007.0 - - - - - - - - -
30/05:00pm 27.3 NW 5 6 1006.9 - - - - - - - - -
30/04:30pm 27.4 N 4 5 1006.6 - - - - - - - - -
30/04:00pm 27.4 N 5 6 1006.5 - - - - - - - - -
30/03:30pm 27.5 N 3 4 1006.3 - - - - - - - - -
30/03:00pm 27.4 N 5 6 1006.6 - - - - - - - - -
30/02:30pm 28.1 N 3 5 1007.1 - - - - - - - - -
30/02:00pm 27.9 NNW 4 6 1007.6 - - - - - - - - -
30/01:30pm 27.9 S 6 7 1008.2 - - - - - - - - -
30/01:00pm 27.3 SSE 8 10 1008.7 - - - - - - - - -
30/12:30pm 26.9 SE 11 14 1008.4 - - - - - - - - -
30/12:00pm 26.1 SE 10 13 1008.9 - - - - - - - - -
30/11:30am 24.6 SE 14 16 1009.8 - - - - - - - - -
30/11:00am 24.0 S 13 17 1010.8 - - - - - - - - -
30/10:47am 24.8 S 16 22 1010.7 - - - - - - - - -
30/10:30am 26.6 SSE 21 27 1010.2 - - - - - - - - -
30/10:07am 27.1 SE 19 29 1009.8 - - - - - - - - -
30/10:00am 27.0 SE 20 27 1009.9 - - - - - - - - -
30/09:34am 26.3 S 17 25 1009.8 - - - - - - - - -
30/09:30am 27.7 SSW 14 21 1009.8 - - - - - - - - -
30/09:00am 29.2 SSW 13 16 1009.8 - - - - - - - - -
30/08:30am 29.0 SW 12 15 1009.4 - - - - - - - - -
30/08:00am 28.7 SW 12 15 1009.0 - - - - - - - - -
30/07:30am 28.5 WSW 10 13 1008.5 - - - - - - - - -
30/07:00am 28.3 WSW 10 13 1008.3 - - - - - - - - -
30/06:30am 28.2 WSW 12 14 1007.8 - - - - - - - - -
30/06:00am 28.0 WSW 10 13 1007.8 - - - - - - - - -
30/05:30am 27.8 WSW 11 13 1007.6 - - - - - - - - -
30/05:00am 27.9 W 10 13 1007.1 - - - - - - - - -
30/04:30am 28.0 W 10 12 1006.9 - - - - - - - - -
30/04:00am 27.8 W 10 12 1006.8 - - - - - - - - -
30/03:30am 28.1 W 9 11 1006.8 - - - - - - - - -
30/03:00am 27.9 W 10 12 1006.9 - - - - - - - - -
30/02:30am 28.1 W 11 14 1006.7 - - - - - - - - -
30/02:00am 28.0 W 11 13 1006.5 - - - - - - - - -
30/01:30am 28.0 W 10 12 1006.9 - - - - - - - - -
30/01:00am 27.9 W 9 12 1007.2 - - - - - - - - -
30/12:30am 28.0 W 9 11 1007.6 - - - - - - - - -
30/12:00am 28.0 W 8 10 1007.8 - - - - - - - - -
 
Date/Time
WST
Temp

°C
Wind Pressure Rain
since 9am
mm
Weather Cloud Vis
km
Sea
Height
m
Swell
Dir
 
Speed
knots
Gust
knots
hPa Trend Height
m
Period
s
Dir
29/11:30pm 28.1 W 9 11 1008.0 - - - - - - - - -
29/11:00pm 28.1 W 8 10 1008.1 - - - - - - - - -
29/10:30pm 28.3 WSW 9 11 1008.1 - - - - - - - - -
29/10:00pm 28.3 WSW 9 11 1008.2 - - - - - - - - -
29/09:30pm 28.6 WSW 10 13 1008.1 - - - - - - - - -
29/09:00pm 28.4 WSW 10 13 1008.0 - - - - - - - - -
29/08:30pm 28.4 WSW 11 13 1007.7 - - - - - - - - -
29/08:00pm 28.4 WSW 12 14 1007.1 - - - - - - - - -
29/07:30pm 28.3 WSW 12 15 1006.6 - - - - - - - - -
29/07:00pm 28.6 WSW 12 15 1006.3 - - - - - - - - -
29/06:30pm 28.7 WSW 11 13 1006.0 - - - - - - - - -
29/06:00pm 28.8 WSW 12 15 1005.8 - - - - - - - - -
29/05:30pm 28.7 WSW 11 13 1005.6 - - - - - - - - -
29/05:00pm 28.8 WSW 9 12 1005.6 - - - - - - - - -
29/04:30pm 28.6 W 10 13 1005.3 - - - - - - - - -
29/04:00pm 28.7 WSW 10 13 1005.1 - - - - - - - - -
29/03:30pm 29.8 WSW 11 14 1004.9 - - - - - - - - -
29/03:00pm 29.2 WSW 12 15 1004.9 - - - - - - - - -
29/02:30pm 29.2 W 13 16 1005.3 - - - - - - - - -
29/02:00pm 29.6 W 13 17 1005.5 - - - - - - - - -
29/01:30pm 29.6 W 13 17 1005.6 - - - - - - - - -
29/01:00pm 29.2 W 12 14 1005.8 - - - - - - - - -
29/12:30pm 29.3 WNW 10 12 1005.9 - - - - - - - - -
29/12:00pm 28.5 WNW 12 16 1006.1 - - - - - - - - -
29/11:30am 29.1 WNW 11 14 1006.2 - - - - - - - - -
29/11:00am 29.4 W 7 9 1006.4 - - - - - - - - -
29/10:30am 28.4 WSW 10 14 1006.8 - - - - - - - - -
29/10:00am 26.8 W 11 14 1007.0 - - - - - - - - -
29/09:30am 26.7 WSW 8 10 1007.8 - - - - - - - - -
29/09:00am 26.5 SW 9 12 1008.6 - - - - - - - - -
29/08:30am 26.1 SSE 10 14 1009.1 - - - - - - - - -
29/08:00am 25.2 SE 11 15 1009.1 - - - - - - - - -
29/07:30am 25.3 SE 9 11 1008.5 - - - - - - - - -
29/07:00am 24.8 ESE 9 11 1008.6 - - - - - - - - -
29/06:30am 24.8 ESE 12 15 1008.2 - - - - - - - - -
29/06:00am 24.8 E 17 21 1007.9 - - - - - - - - -
29/05:30am 25.1 E 22 28 1007.7 - - - - - - - - -
29/05:15am 26.0 SE 12 25 1007.2 - - - - - - - - -
29/05:13am 26.2 SE 10 25 1007.2 - - - - - - - - -
29/05:00am 28.0 SSE 9 11 1006.8 - - - - - - - - -
29/04:30am 28.1 SSE 8 12 1006.5 - - - - - - - - -
29/04:00am 28.4 SSW 12 15 1005.4 - - - - - - - - -
29/03:30am 28.3 SSW 9 12 1005.2 - - - - - - - - -
29/03:00am 28.3 SSW 7 9 1005.5 - - - - - - - - -
29/02:30am 28.4 SW 11 13 1005.4 - - - - - - - - -
29/02:00am 28.4 SW 9 11 1005.2 - - - - - - - - -
29/01:30am 28.5 SW 9 12 1005.6 - - - - - - - - -
29/01:00am 28.4 SW 10 12 1006.0 - - - - - - - - -
29/12:30am 28.6 SW 10 13 1006.1 - - - - - - - - -
29/12:00am 28.7 WSW 11 15 1006.1 - - - - - - - - -
 
Date/Time
WST
Temp

°C
Wind Pressure Rain
since 9am
mm
Weather Cloud Vis
km
Sea
Height
m
Swell
Dir
 
Speed
knots
Gust
knots
hPa Trend Height
m
Period
s
Dir
28/11:30pm 28.7 WSW 12 15 1006.4 - - - - - - - - -
28/11:00pm 28.7 SW 11 15 1006.4 - - - - - - - - -
28/10:30pm 28.7 WSW 11 14 1006.8 - - - - - - - - -
28/10:00pm 28.8 SW 11 14 1006.8 - - - - - - - - -
28/09:30pm 28.9 SW 12 15 1006.7 - - - - - - - - -
28/09:00pm 29.0 SW 13 15 1006.3 - - - - - - - - -
28/08:30pm 29.0 WSW 12 15 1006.3 - - - - - - - - -
28/08:00pm 29.1 WSW 11 14 1006.0 - - - - - - - - -
28/07:30pm 29.0 WSW 11 15 1005.6 - - - - - - - - -
28/07:00pm 29.0 WSW 11 14 1005.3 - - - - - - - - -
28/06:30pm 29.0 WSW 9 12 1005.1 - - - - - - - - -
28/06:00pm 29.2 WSW 9 11 1004.8 - - - - - - - - -
28/05:30pm 29.7 WSW 9 11 1004.6 - - - - - - - - -
28/05:00pm 29.4 WSW 10 12 1004.7 - - - - - - - - -

Other Formats:

Comma delimited format used in spreadsheet applications
http://www.bom.gov.au/fwo/IDW60701/IDW60701.94210.axf

JavaScript Object Notation format (JSON) in row-major order
http://www.bom.gov.au/fwo/IDW60701/IDW60701.94210.json